createdAt,value
2022-12-09T00:00:06.776Z,99724.50
2022-12-09T00:02:34.173Z,99732.28
2022-12-09T00:05:01.250Z,99732.28
2022-12-09T00:07:28.082Z,99742.97
2022-12-09T00:09:54.854Z,99732.28
2022-12-09T00:12:21.574Z,99733.53
2022-12-09T00:14:48.326Z,99740.00
2022-12-09T00:17:15.052Z,99739.22
2022-12-09T00:19:41.961Z,99749.44
2022-12-09T00:22:08.691Z,99749.22
2022-12-09T00:24:35.491Z,99760.34
2022-12-09T00:27:02.179Z,99770.44
2022-12-09T00:29:28.739Z,99768.66
2022-12-09T00:31:55.494Z,99767.25
2022-12-09T00:34:22.417Z,99767.03
2022-12-09T00:36:49.115Z,99761.56
2022-12-09T00:39:15.791Z,99756.72
2022-12-09T00:41:42.628Z,99757.59
2022-12-09T00:44:10.034Z,99757.88
2022-12-09T00:46:37.722Z,99757.00
2022-12-09T00:49:06.034Z,99743.72
2022-12-09T00:51:33.006Z,99743.53
2022-12-09T00:54:00.110Z,99735.19
2022-12-09T00:56:28.967Z,99733.72
2022-12-09T00:58:56.855Z,99739.06
2022-12-09T01:01:26.104Z,99734.13
2022-12-09T01:03:52.872Z,99751.94
2022-12-09T01:06:23.355Z,99756.91
2022-12-09T01:08:50.330Z,99756.47
2022-12-09T01:11:23.338Z,99748.66
2022-12-09T01:13:50.425Z,99752.53
2022-12-09T01:16:18.968Z,99752.78
2022-12-09T01:18:46.262Z,99746.59
2022-12-09T01:21:13.429Z,99742.34
2022-12-09T01:23:40.681Z,99733.72
2022-12-09T01:26:08.553Z,99748.47
2022-12-09T01:28:38.293Z,99746.84
2022-12-09T01:31:13.411Z,99751.16
2022-12-09T01:33:40.542Z,99758.69
2022-12-09T01:36:14.527Z,99764.00
2022-12-09T01:38:41.453Z,99764.00
2022-12-09T01:41:08.196Z,99753.78
2022-12-09T01:43:35.049Z,99745.13
2022-12-09T01:46:01.934Z,99753.75
2022-12-09T01:48:37.022Z,99749.09
2022-12-09T01:51:10.679Z,99746.00
2022-12-09T01:53:40.095Z,99753.97
2022-12-09T01:56:12.207Z,99761.31
2022-12-09T01:58:39.101Z,99758.06
2022-12-09T02:01:06.544Z,99746.97
2022-12-09T02:03:33.783Z,99742.38
2022-12-09T02:06:00.970Z,99732.31
2022-12-09T02:08:27.606Z,99732.94
2022-12-09T02:11:05.079Z,99732.13
2022-12-09T02:13:49.098Z,99731.91
2022-12-09T02:16:21.902Z,99735.56
2022-12-09T02:19:00.311Z,99737.78
2022-12-09T02:21:34.028Z,99740.22
2022-12-09T02:24:17.572Z,99725.06
2022-12-09T02:27:05.707Z,99723.78
2022-12-09T02:29:53.114Z,99711.06
2022-12-09T02:32:26.548Z,99699.78
2022-12-09T02:35:04.827Z,99690.31
2022-12-09T02:37:52.154Z,99687.81
2022-12-09T02:40:29.163Z,99685.53
2022-12-09T02:42:58.212Z,99684.47
2022-12-09T02:45:28.111Z,99684.28
2022-12-09T02:47:58.842Z,99676.84
2022-12-09T02:50:29.298Z,99659.22
2022-12-09T02:52:58.902Z,99648.81
2022-12-09T02:55:29.097Z,99653.75
2022-12-09T02:58:00.635Z,99661.66
2022-12-09T03:00:29.605Z,99666.81
2022-12-09T03:03:01.460Z,99672.13
2022-12-09T03:05:47.891Z,99681.97
2022-12-09T03:08:33.353Z,99680.03
2022-12-09T03:11:07.658Z,99669.53
2022-12-09T03:13:45.068Z,99661.75
2022-12-09T03:16:30.340Z,99682.88
2022-12-09T03:19:19.271Z,99679.34
2022-12-09T03:21:48.134Z,99673.00
2022-12-09T03:24:20.936Z,99677.53
2022-12-09T03:26:49.858Z,99669.06
2022-12-09T03:29:21.087Z,99681.06
2022-12-09T03:31:49.465Z,99676.28
2022-12-09T03:34:20.141Z,99660.31
2022-12-09T03:36:50.739Z,99658.69
2022-12-09T03:39:24.682Z,99652.44
2022-12-09T03:41:57.376Z,99645.88
2022-12-09T03:44:26.828Z,99651.06
2022-12-09T03:46:53.569Z,99648.31
2022-12-09T03:49:20.382Z,99645.44
2022-12-09T03:51:57.310Z,99637.56
2022-12-09T03:54:24.275Z,99629.13
2022-12-09T03:56:56.934Z,99636.72
2022-12-09T03:59:28.792Z,99619.88
2022-12-09T04:01:56.111Z,99619.88
2022-12-09T04:04:23.578Z,99620.09
2022-12-09T04:06:52.949Z,99631.38
2022-12-09T04:09:20.117Z,99627.75
2022-12-09T04:11:46.972Z,99622.00
2022-12-09T04:14:15.785Z,99605.63
2022-12-09T04:16:43.605Z,99603.25
2022-12-09T04:19:10.956Z,99603.47
2022-12-09T04:21:37.947Z,99592.56
2022-12-09T04:24:04.922Z,99601.41
2022-12-09T04:26:31.707Z,99597.09
2022-12-09T04:28:58.716Z,99595.22
2022-12-09T04:31:25.916Z,99597.53
2022-12-09T04:33:52.704Z,99596.72
2022-12-09T04:36:20.557Z,99590.19
2022-12-09T04:38:47.812Z,99598.78
2022-12-09T04:41:16.241Z,99609.91
2022-12-09T04:43:43.434Z,99588.34
2022-12-09T04:46:13.678Z,99591.47
2022-12-09T04:48:41.213Z,99601.06
2022-12-09T04:51:15.897Z,99598.34
2022-12-09T04:53:43.422Z,99609.06
2022-12-09T04:56:16.555Z,99607.56
2022-12-09T04:58:44.950Z,99603.06
2022-12-09T05:01:18.161Z,99605.06
2022-12-09T05:03:50.289Z,99618.56
2022-12-09T05:06:19.065Z,99613.66
2022-12-09T05:08:46.573Z,99617.91
2022-12-09T05:11:19.454Z,99610.94
2022-12-09T05:13:46.588Z,99603.75
2022-12-09T05:16:17.291Z,99601.25
2022-12-09T05:18:46.467Z,99603.91
2022-12-09T05:21:16.049Z,99598.72
2022-12-09T05:23:43.766Z,99603.63
2022-12-09T05:26:13.849Z,99606.75
2022-12-09T05:28:41.027Z,99611.03
2022-12-09T05:31:11.748Z,99616.97
2022-12-09T05:33:39.612Z,99623.94
2022-12-09T05:36:13.152Z,99625.88
2022-12-09T05:38:41.135Z,99616.84
2022-12-09T05:41:08.206Z,99620.91
2022-12-09T05:43:37.079Z,99609.22
2022-12-09T05:46:05.793Z,99609.44
2022-12-09T05:48:33.534Z,99612.75
2022-12-09T05:51:04.228Z,99613.34
2022-12-09T05:53:31.525Z,99619.94
2022-12-09T05:55:58.366Z,99627.31
2022-12-09T05:58:25.875Z,99613.63
2022-12-09T06:00:56.565Z,99618.03
2022-12-09T06:03:24.476Z,99619.81
2022-12-09T06:05:52.180Z,99617.16
2022-12-09T06:08:19.733Z,99615.38
2022-12-09T06:10:47.226Z,99608.22
2022-12-09T06:13:14.723Z,99609.53
2022-12-09T06:15:41.668Z,99600.72
2022-12-09T06:18:08.855Z,99605.66
2022-12-09T06:20:39.903Z,99606.03
2022-12-09T06:23:06.742Z,99605.22
2022-12-09T06:25:33.805Z,99604.63
2022-12-09T06:28:00.833Z,99607.50
2022-12-09T06:30:27.544Z,99610.38
2022-12-09T06:32:54.410Z,99608.16
2022-12-09T06:35:21.309Z,99602.16
2022-12-09T06:37:52.389Z,99608.75
2022-12-09T06:40:22.722Z,99612.69
2022-12-09T06:42:51.238Z,99620.47
2022-12-09T06:45:19.923Z,99619.25
2022-12-09T06:47:47.742Z,99615.03
2022-12-09T06:50:16.316Z,99611.97
2022-12-09T06:52:43.570Z,99623.25
2022-12-09T06:55:11.276Z,99619.13
2022-12-09T06:57:38.348Z,99618.09
2022-12-09T07:00:06.513Z,99622.44
2022-12-09T07:02:36.700Z,99617.66
2022-12-09T07:05:04.394Z,99620.09
2022-12-09T07:07:31.913Z,99629.06
2022-12-09T07:09:58.986Z,99628.47
2022-12-09T07:12:26.060Z,99631.72
2022-12-09T07:14:52.803Z,99630.69
2022-12-09T07:17:20.889Z,99629.03
2022-12-09T07:19:48.257Z,99635.84
2022-12-09T07:22:16.076Z,99637.50
2022-12-09T07:24:43.267Z,99652.06
2022-12-09T07:27:19.299Z,99652.25
2022-12-09T07:29:47.211Z,99646.59
2022-12-09T07:32:14.829Z,99649.19
2022-12-09T07:34:43.008Z,99646.13
2022-12-09T07:37:09.950Z,99646.53
2022-12-09T07:39:36.839Z,99648.56
2022-12-09T07:42:03.847Z,99643.75
2022-12-09T07:44:31.098Z,99634.06
2022-12-09T07:46:58.555Z,99634.84
2022-12-09T07:49:25.893Z,99628.16
2022-12-09T07:51:52.861Z,99630.59
2022-12-09T07:54:20.431Z,99624.13
2022-12-09T07:56:47.950Z,99637.50
2022-12-09T07:59:15.378Z,99639.72
2022-12-09T08:01:43.312Z,99646.72
2022-12-09T08:04:11.315Z,99648.13
2022-12-09T08:06:39.110Z,99656.72
2022-12-09T08:09:09.155Z,99661.03
2022-12-09T08:11:36.783Z,99665.28
2022-12-09T08:14:11.295Z,99669.09
2022-12-09T08:16:40.773Z,99677.84
2022-12-09T08:19:08.318Z,99680.44
2022-12-09T08:21:35.848Z,99681.03
2022-12-09T08:24:08.828Z,99681.75
2022-12-09T08:26:37.568Z,99687.31
2022-12-09T08:29:08.247Z,99687.09
2022-12-09T08:31:40.597Z,99690.84
2022-12-09T08:34:09.127Z,99692.22
2022-12-09T08:36:37.154Z,99693.03
2022-12-09T08:39:05.103Z,99693.09
2022-12-09T08:41:38.530Z,99688.59
2022-12-09T08:44:07.928Z,99693.03
2022-12-09T08:46:36.434Z,99698.28
2022-12-09T08:49:05.815Z,99693.84
2022-12-09T08:51:34.193Z,99706.19
2022-12-09T08:54:01.640Z,99707.53
2022-12-09T08:56:29.170Z,99718.19
2022-12-09T08:58:57.142Z,99709.78
2022-12-09T09:01:32.367Z,99711.19
2022-12-09T09:04:05.176Z,99717.47
2022-12-09T09:06:32.386Z,99710.75
2022-12-09T09:08:59.457Z,99705.47
2022-12-09T09:11:27.154Z,99707.19
2022-12-09T09:13:54.580Z,99715.53
2022-12-09T09:16:23.886Z,99710.66
2022-12-09T09:18:51.672Z,99707.91
2022-12-09T09:21:21.705Z,99718.03
2022-12-09T09:23:49.593Z,99722.81
2022-12-09T09:26:19.358Z,99723.50
2022-12-09T09:28:47.310Z,99717.47
2022-12-09T09:31:17.622Z,99720.38
2022-12-09T09:33:45.138Z,99721.44
2022-12-09T09:36:15.103Z,99725.41
2022-12-09T09:38:42.476Z,99732.97
2022-12-09T09:41:27.888Z,99732.84
2022-12-09T09:43:56.655Z,99737.38
2022-12-09T09:46:42.419Z,99733.78
2022-12-09T09:49:18.941Z,99739.03
2022-12-09T09:51:49.246Z,99749.25
2022-12-09T09:54:16.196Z,99747.41
2022-12-09T09:56:53.685Z,99739.50
2022-12-09T09:59:45.481Z,99748.28
2022-12-09T10:02:12.657Z,99750.59
2022-12-09T10:04:56.395Z,99755.03
2022-12-09T10:07:28.246Z,99752.78
2022-12-09T10:10:25.019Z,99751.97
2022-12-09T10:13:26.500Z,99749.63
2022-12-09T10:16:15.516Z,99744.06
2022-12-09T10:19:07.643Z,99733.16
2022-12-09T10:21:40.367Z,99730.31
2022-12-09T10:24:22.223Z,99718.31
2022-12-09T10:27:16.640Z,99723.19
2022-12-09T10:29:55.049Z,99717.44
2022-12-09T10:32:25.989Z,99721.91
2022-12-09T10:34:53.421Z,99708.03
2022-12-09T10:37:32.395Z,99707.28
2022-12-09T10:40:20.446Z,99695.50
2022-12-09T10:43:07.281Z,99698.63
2022-12-09T10:46:08.418Z,99701.72
2022-12-09T10:48:41.314Z,99697.31
2022-12-09T10:51:14.104Z,99693.59
2022-12-09T10:53:49.540Z,99693.00
2022-12-09T10:56:32.478Z,99686.81
2022-12-09T10:59:20.299Z,99691.84
2022-12-09T11:01:52.052Z,99689.78
2022-12-09T11:04:35.064Z,99687.97
2022-12-09T11:07:16.882Z,99698.88
2022-12-09T11:09:44.212Z,99691.69
2022-12-09T11:12:27.423Z,99686.44
2022-12-09T11:15:01.356Z,99679.19
2022-12-09T11:17:43.122Z,99680.06
2022-12-09T11:20:17.358Z,99668.28
2022-12-09T11:22:46.681Z,99674.81
2022-12-09T11:25:15.757Z,99671.34
2022-12-09T11:27:53.819Z,99670.31
2022-12-09T11:30:57.871Z,99669.97
2022-12-09T11:33:37.581Z,99662.94
2022-12-09T11:36:09.675Z,99667.72
2022-12-09T11:38:36.298Z,99665.19
2022-12-09T11:41:09.082Z,99664.50
2022-12-09T11:43:43.118Z,99662.16
2022-12-09T11:46:12.645Z,99652.22
2022-12-09T11:48:53.715Z,99641.53
2022-12-09T11:51:24.568Z,99648.09
2022-12-09T11:53:54.549Z,99632.16
2022-12-09T11:56:25.818Z,99635.50
2022-12-09T11:59:09.011Z,99628.75
2022-12-09T12:01:45.806Z,99615.91
2022-12-09T12:04:16.403Z,99622.91
2022-12-09T12:06:53.580Z,99625.66
2022-12-09T12:09:26.725Z,99616.88
2022-12-09T12:12:03.160Z,99617.03
2022-12-09T12:14:30.785Z,99606.00
2022-12-09T12:17:07.006Z,99619.72
2022-12-09T12:19:37.317Z,99614.28
2022-12-09T12:22:12.667Z,99615.84
2022-12-09T12:24:54.258Z,99622.41
2022-12-09T12:27:35.808Z,99613.28
2022-12-09T12:30:09.215Z,99607.38
2022-12-09T12:36:21.604Z,99604.69
2022-12-09T12:39:27.083Z,99604.22
2022-12-09T12:42:25.746Z,99602.41
2022-12-09T12:45:21.341Z,99601.03
2022-12-09T12:47:55.339Z,99594.50
2022-12-09T12:50:49.304Z,99596.47
2022-12-09T12:53:36.589Z,99597.31
2022-12-09T12:56:08.744Z,99577.53
2022-12-09T12:58:45.823Z,99577.91
2022-12-09T13:01:36.382Z,99576.66
2022-12-09T13:04:15.085Z,99578.31
2022-12-09T13:06:46.629Z,99582.94
2022-12-09T13:09:22.224Z,99582.16
2022-12-09T13:12:15.024Z,99579.75
2022-12-09T13:14:55.512Z,99578.66
2022-12-09T13:17:28.279Z,99575.97
2022-12-09T13:20:00.122Z,99581.34
2022-12-09T13:22:50.760Z,99580.03
2022-12-09T13:25:22.159Z,99564.41
2022-12-09T13:27:58.207Z,99562.81
2022-12-09T13:30:36.370Z,99556.16
2022-12-09T13:33:30.193Z,99552.03
2022-12-09T13:36:06.428Z,99547.75
2022-12-09T13:38:40.624Z,99543.41
2022-12-09T13:41:26.292Z,99537.81
2022-12-09T13:43:58.386Z,99545.66
2022-12-09T13:46:27.503Z,99547.75
2022-12-09T13:48:55.225Z,99551.31
2022-12-09T13:51:23.575Z,99550.25
2022-12-09T13:53:53.750Z,99557.72
2022-12-09T13:56:25.739Z,99553.06
2022-12-09T13:58:55.458Z,99548.44
2022-12-09T14:01:47.220Z,99559.13
2022-12-09T14:04:25.058Z,99557.44
2022-12-09T14:06:57.149Z,99557.66
2022-12-09T14:09:33.467Z,99556.22
2022-12-09T14:12:06.981Z,99562.38
2022-12-09T14:14:34.053Z,99564.28
2022-12-09T14:17:29.749Z,99558.53
2022-12-09T14:20:18.177Z,99556.34
2022-12-09T14:23:03.466Z,99557.25
2022-12-09T14:25:33.608Z,99559.69
2022-12-09T14:28:12.292Z,99562.13
2022-12-09T14:31:00.743Z,99552.91
2022-12-09T14:33:34.783Z,99555.63
2022-12-09T14:36:06.811Z,99549.25
2022-12-09T14:39:08.016Z,99555.94
2022-12-09T14:41:39.264Z,99552.41
2022-12-09T14:44:08.697Z,99549.72
2022-12-09T14:46:37.956Z,99559.91
2022-12-09T14:49:19.467Z,99553.72
2022-12-09T14:51:49.723Z,99547.53
2022-12-09T14:54:28.329Z,99547.28
2022-12-09T14:56:57.864Z,99540.50
2022-12-09T14:59:26.880Z,99542.84
2022-12-09T15:02:16.948Z,99542.31
2022-12-09T15:04:46.171Z,99550.91
2022-12-09T15:07:21.052Z,99551.34
2022-12-09T15:10:17.118Z,99559.16
2022-12-09T15:12:50.244Z,99560.47
2022-12-09T15:15:26.501Z,99558.31
2022-12-09T15:17:55.468Z,99553.97
2022-12-09T15:20:26.128Z,99561.59
2022-12-09T15:22:55.530Z,99564.78
2022-12-09T15:25:23.905Z,99569.56
2022-12-09T15:28:05.893Z,99571.09
2022-12-09T15:30:35.640Z,99568.72
2022-12-09T15:33:03.238Z,99570.03
2022-12-09T15:35:33.064Z,99578.09
2022-12-09T15:38:06.743Z,99575.91
2022-12-09T15:40:36.336Z,99574.00
2022-12-09T15:43:11.807Z,99571.59
2022-12-09T15:45:42.830Z,99578.25
2022-12-09T15:48:13.481Z,99580.66
2022-12-09T15:50:51.381Z,99570.97
2022-12-09T15:53:36.075Z,99569.59
2022-12-09T15:56:13.842Z,99570.09
2022-12-09T15:58:48.101Z,99572.22
2022-12-09T16:01:27.969Z,99567.50
2022-12-09T16:03:56.712Z,99562.13
2022-12-09T16:06:27.557Z,99555.66
2022-12-09T16:08:54.433Z,99552.84
2022-12-09T16:11:47.920Z,99548.06
2022-12-09T16:14:16.547Z,99551.78
2022-12-09T16:16:48.107Z,99546.09
2022-12-09T16:19:25.647Z,99560.00
2022-12-09T16:21:58.096Z,99561.06
2022-12-09T16:24:25.089Z,99568.56
2022-12-09T16:26:54.688Z,99559.63
2022-12-09T16:29:26.736Z,99561.25
2022-12-09T16:32:12.171Z,99558.25
2022-12-09T16:34:38.894Z,99560.50
2022-12-09T16:37:23.329Z,99558.31
2022-12-09T16:39:50.121Z,99552.38
2022-12-09T16:42:40.959Z,99545.38
2022-12-09T16:45:30.574Z,99552.06
2022-12-09T16:47:59.056Z,99564.34
2022-12-09T16:50:35.662Z,99567.78
2022-12-09T16:53:05.599Z,99558.09
2022-12-09T16:55:33.007Z,99577.38
2022-12-09T16:58:00.894Z,99574.69
2022-12-09T17:00:27.699Z,99576.78
2022-12-09T17:03:02.083Z,99585.91
2022-12-09T17:05:28.896Z,99574.34
2022-12-09T17:07:55.822Z,99577.84
2022-12-09T17:10:22.814Z,99580.19
2022-12-09T17:12:49.736Z,99585.81
2022-12-09T17:15:20.161Z,99575.59
2022-12-09T17:17:48.904Z,99581.19
2022-12-09T17:20:16.284Z,99584.34
2022-12-09T17:22:43.156Z,99573.84
2022-12-09T17:25:10.460Z,99574.34
2022-12-09T17:27:37.670Z,99572.72
2022-12-09T17:30:05.419Z,99575.66
2022-12-09T17:32:32.074Z,99576.13
2022-12-09T17:34:58.754Z,99572.88
2022-12-09T17:37:25.497Z,99579.53
2022-12-09T17:39:56.858Z,99569.28
2022-12-09T17:42:28.384Z,99573.50
2022-12-09T17:44:55.041Z,99570.81
2022-12-09T17:47:21.702Z,99566.53
2022-12-09T17:49:48.338Z,99570.50
2022-12-09T17:52:15.053Z,99572.38
2022-12-09T17:54:41.681Z,99571.81
2022-12-09T17:57:08.364Z,99581.94
2022-12-09T17:59:35.106Z,99582.69
2022-12-09T18:02:03.784Z,99590.22
2022-12-09T18:04:31.518Z,99589.91
2022-12-09T18:06:58.432Z,99588.28
2022-12-09T18:09:25.386Z,99589.09
2022-12-09T18:11:52.150Z,99583.72
2022-12-09T18:14:19.893Z,99589.91
2022-12-09T18:16:46.688Z,99579.19
2022-12-09T18:19:16.795Z,99590.47
2022-12-09T18:21:44.935Z,99589.44
2022-12-09T18:24:12.879Z,99590.22
2022-12-09T18:26:42.219Z,99587.25
2022-12-09T18:29:11.378Z,99590.47
2022-12-09T18:31:39.701Z,99587.78
2022-12-09T18:34:06.782Z,99583.25
2022-12-09T18:36:33.958Z,99595.84
2022-12-09T18:39:00.941Z,99592.59
2022-12-09T18:41:30.172Z,99587.44
2022-12-09T18:43:59.131Z,99599.25
2022-12-09T18:46:30.136Z,99602.72
2022-12-09T18:48:58.989Z,99598.66
2022-12-09T18:51:26.158Z,99602.88
2022-12-09T18:53:53.293Z,99609.31
2022-12-09T18:56:20.095Z,99604.75
2022-12-09T18:59:16.792Z,99605.78
2022-12-09T19:01:35.787Z,99613.91
2022-12-09T19:04:04.234Z,99613.56
2022-12-09T19:06:36.833Z,99616.59
2022-12-09T19:09:16.287Z,99621.94
2022-12-09T19:11:44.473Z,99624.72
2022-12-09T19:14:11.176Z,99616.78
2022-12-09T19:16:38.652Z,99628.34
2022-12-09T19:19:09.416Z,99629.97
2022-12-09T19:21:38.340Z,99625.41
2022-12-09T19:24:05.688Z,99622.97
2022-12-09T19:26:34.407Z,99629.97
2022-12-09T19:29:04.537Z,99627.50
2022-12-09T19:31:37.125Z,99631.25
2022-12-09T19:34:10.814Z,99640.34
2022-12-09T19:36:37.602Z,99645.81
2022-12-09T19:39:08.337Z,99641.97
2022-12-09T19:41:36.672Z,99636.50
2022-12-09T19:44:04.896Z,99633.16
2022-12-09T19:46:32.093Z,99633.38
2022-12-09T19:48:59.311Z,99637.72
2022-12-09T19:51:27.667Z,99639.94
2022-12-09T19:53:56.540Z,99641.81
2022-12-09T19:56:24.634Z,99647.53
2022-12-09T19:58:52.332Z,99635.53
2022-12-09T20:01:20.754Z,99647.84
2022-12-09T20:03:50.319Z,99646.94
2022-12-09T20:06:19.743Z,99647.06
2022-12-09T20:08:47.565Z,99648.44
2022-12-09T20:11:23.768Z,99642.06
2022-12-09T20:13:51.358Z,99643.34
2022-12-09T20:16:22.103Z,99640.19
2022-12-09T20:18:50.306Z,99634.25
2022-12-09T20:21:19.136Z,99636.59
2022-12-09T20:23:47.008Z,99638.63
2022-12-09T20:26:16.759Z,99639.53
2022-12-09T20:28:45.496Z,99633.81
2022-12-09T20:31:21.064Z,99625.00
2022-12-09T20:33:51.907Z,99626.94
2022-12-09T20:36:21.135Z,99628.88
2022-12-09T20:38:50.047Z,99620.06
2022-12-09T20:41:16.805Z,99618.25
2022-12-09T20:43:46.023Z,99621.34
2022-12-09T20:46:14.205Z,99626.34
2022-12-09T20:48:41.724Z,99623.69
2022-12-09T20:51:19.982Z,99625.69
2022-12-09T20:53:48.022Z,99622.91
2022-12-09T20:56:15.973Z,99628.13
2022-12-09T20:58:44.554Z,99631.13
2022-12-09T21:01:15.146Z,99629.75
2022-12-09T21:03:42.962Z,99631.63
2022-12-09T21:06:10.985Z,99633.69
2022-12-09T21:08:37.767Z,99636.88
2022-12-09T21:11:24.103Z,99634.25
2022-12-09T21:14:00.931Z,99640.81
2022-12-09T21:16:30.656Z,99641.03
2022-12-09T21:19:01.931Z,99638.59
2022-12-09T21:21:31.481Z,99629.94
2022-12-09T21:23:59.712Z,99634.38
2022-12-09T21:26:27.198Z,99634.41
2022-12-09T21:28:54.680Z,99627.78
2022-12-09T21:31:33.676Z,99620.16
2022-12-09T21:34:03.521Z,99619.94
2022-12-09T21:36:35.441Z,99618.66
2022-12-09T21:39:03.100Z,99621.09
2022-12-09T21:41:32.236Z,99628.19
2022-12-09T21:43:59.646Z,99631.22
2022-12-09T21:46:31.766Z,99627.50
2022-12-09T21:49:03.978Z,99634.63
2022-12-09T21:51:32.429Z,99631.34
2022-12-09T21:54:00.013Z,99631.72
2022-12-09T21:56:30.324Z,99644.13
2022-12-09T21:58:58.472Z,99638.69
2022-12-09T22:01:28.234Z,99642.09
2022-12-09T22:03:56.827Z,99647.44
2022-12-09T22:06:23.906Z,99657.53
2022-12-09T22:08:51.255Z,99647.06
2022-12-09T22:11:23.570Z,99649.66
2022-12-09T22:13:50.794Z,99647.34
2022-12-09T22:16:20.279Z,99645.00
2022-12-09T22:18:48.523Z,99644.78
2022-12-09T22:21:26.687Z,99646.78
2022-12-09T22:23:55.376Z,99643.75
2022-12-09T22:26:22.898Z,99645.97
2022-12-09T22:28:49.946Z,99645.97
2022-12-09T22:31:22.207Z,99643.66
2022-12-09T22:33:50.907Z,99656.88
2022-12-09T22:36:19.084Z,99659.69
2022-12-09T22:38:46.234Z,99666.91
2022-12-09T22:41:19.208Z,99659.69
2022-12-09T22:43:48.200Z,99664.19
2022-12-09T22:46:20.376Z,99662.78
2022-12-09T22:48:47.606Z,99660.09
2022-12-09T22:51:21.745Z,99655.38
2022-12-09T22:53:50.251Z,99665.22
2022-12-09T22:56:17.440Z,99671.31
2022-12-09T22:58:44.122Z,99668.03
2022-12-09T23:01:12.960Z,99668.44
2022-12-09T23:03:39.656Z,99665.75
2022-12-09T23:06:07.059Z,99658.78
2022-12-09T23:08:34.178Z,99657.63
2022-12-09T23:11:22.239Z,99657.72
2022-12-09T23:13:49.428Z,99660.63
2022-12-09T23:16:19.385Z,99667.22
2022-12-09T23:18:46.683Z,99662.44
2022-12-09T23:21:18.598Z,99661.19
2022-12-09T23:23:45.358Z,99666.06
2022-12-09T23:26:15.791Z,99665.50
2022-12-09T23:28:45.486Z,99665.81
2022-12-09T23:31:14.194Z,99661.34
2022-12-09T23:33:42.747Z,99672.41
2022-12-09T23:36:13.151Z,99666.47
2022-12-09T23:38:40.493Z,99670.66
2022-12-09T23:41:07.718Z,99668.63
2022-12-09T23:43:35.789Z,99670.66
2022-12-09T23:46:05.376Z,99669.50
2022-12-09T23:48:33.456Z,99669.00
2022-12-09T23:51:27.756Z,99666.91
2022-12-09T23:53:59.828Z,99665.06
2022-12-09T23:56:27.212Z,99667.59
2022-12-09T23:59:03.419Z,99664.00
